Time;durP1;ratioP1;P1;durP2;ratioP2;P2;SDS_P1;SDS_P2;PMS_P1;PMS_P2;Temp;Humidity;BMP_temperature;BMP_pressure;BME280_temperature;BME280_humidity;BME280_pressure;Samples;Min_cycle;Max_cycle;Signal;HPM_P1;HPM_P2
2023/10/28 00:01:22;;;;;;;;;;;;;;;;;;10345155;28;20354;-71
2023/10/28 00:06:25;;;;;;;;;;;;;;;;;;10346174;28;19964;-70
2023/10/28 00:11:27;;;;;;;;;;;;;;;;;;10346382;28;19927;-71
2023/10/28 00:16:30;;;;;;;;;;;;;;;;;;10347169;28;20080;-71
2023/10/28 00:21:32;;;;;;;;;;;;;;;;;;10340975;28;20271;-70
2023/10/28 00:26:35;;;;;;;;;;;;;;;;;;10342198;28;19926;-72
2023/10/28 00:31:37;;;;;;;;;;;;;;;;;;10340185;28;19928;-72
2023/10/28 00:36:40;;;;;;;;;;;;;;;;;;10342430;28;19928;-73
2023/10/28 00:41:43;;;;;;;;;;;;;;;;;;10333308;28;19944;-73
2023/10/28 00:46:45;;;;;;;;;;;;;;;;;;10344051;28;19925;-71
2023/10/28 00:51:49;;;;;;;;;;;;;;;;;;10343856;28;19921;-70
2023/10/28 00:56:51;;;;;;;;;;;;;;;;;;10343729;28;19968;-71
2023/10/28 01:01:53;;;;;;;;;;;;;;;;;;10345142;28;19925;-71
2023/10/28 01:06:56;;;;;;;;;;;;;;;;;;10337363;28;19921;-70
2023/10/28 01:11:59;;;;;;;;;;;;;;;;;;10343201;28;19921;-72
2023/10/28 01:17:04;;;;;;;;;;;;;;;;;;10343051;28;19928;-72
2023/10/28 01:22:06;;;;;;;;;;;;;;;;;;10339634;28;20393;-71
2023/10/28 01:27:09;;;;;;;;;;;;;;;;;;10346350;28;20012;-72
2023/10/28 01:32:12;;;;;;;;;;;;;;;;;;10348884;28;20014;-72
2023/10/28 01:37:16;;;;;;;;;;;;;;;;;;10346757;28;19924;-72
2023/10/28 01:42:18;;;;;;;;;;;;;;;;;;10349084;28;19925;-72
2023/10/28 01:47:21;;;;;;;;;;;;;;;;;;10341771;28;19996;-70
2023/10/28 01:52:23;;;;;;;;;;;;;;;;;;10345043;28;19928;-72
2023/10/28 01:57:26;;;;;;;;;;;;;;;;;;10354851;28;20008;-71
2023/10/28 02:02:30;;;;;;;;;;;;;;;;;;10351757;28;19979;-72
2023/10/28 02:07:32;;;;;;;;;;;;;;;;;;10351285;28;19929;-72
2023/10/28 02:12:35;;;;;;;;;;;;;;;;;;10344865;28;20317;-72
2023/10/28 02:17:38;;;;;;;;;;;;;;;;;;10348378;28;19929;-72
2023/10/28 02:22:41;;;;;;;;;;;;;;;;;;10352638;28;19952;-73
2023/10/28 02:27:44;;;;;;;;;;;;;;;;;;10346395;28;20461;-71
2023/10/28 02:32:47;;;;;;;;;;;;;;;;;;10350086;28;19929;-70
2023/10/28 02:37:49;;;;;;;;;;;;;;;;;;10347431;28;19921;-70
2023/10/28 02:42:52;;;;;;;;;;;;;;;;;;10345418;28;20462;-70
2023/10/28 02:47:54;;;;;;;;;;;;;;;;;;10351664;28;19964;-70
2023/10/28 02:52:59;;;;;;;;;;;;;;;;;;10340994;28;19952;-70
2023/10/28 02:58:02;;;;;;;;;;;;;;;;;;10340425;28;20306;-71
2023/10/28 03:03:04;;;;;;;;;;;;;;;;;;10341615;28;20330;-71
2023/10/28 03:08:07;;;;;;;;;;;;;;;;;;10348592;28;19925;-71
2023/10/28 03:13:09;;;;;;;;;;;;;;;;;;10348966;28;19925;-70
2023/10/28 03:18:12;;;;;;;;;;;;;;;;;;10347590;28;20028;-71
2023/10/28 03:23:14;;;;;;;;;;;;;;;;;;10340462;28;19921;-71
2023/10/28 03:28:16;;;;;;;;;;;;;;;;;;10347460;28;20325;-72
2023/10/28 03:33:19;;;;;;;;;;;;;;;;;;10347010;28;19921;-70
2023/10/28 03:38:22;;;;;;;;;;;;;;;;;;10343097;28;19956;-69
2023/10/28 03:43:24;;;;;;;;;;;;;;;;;;10343472;28;20068;-72
2023/10/28 03:48:26;;;;;;;;;;;;;;;;;;10349508;28;20012;-70
2023/10/28 03:53:29;;;;;;;;;;;;;;;;;;10346289;28;20159;-71
2023/10/28 03:58:31;;;;;;;;;;;;;;;;;;10335087;28;19925;-71
2023/10/28 04:03:34;;;;;;;;;;;;;;;;;;10343910;28;19929;-73
2023/10/28 04:08:36;;;;;;;;;;;;;;;;;;10348527;28;19941;-71
2023/10/28 04:13:39;;;;;;;;;;;;;;;;;;10343416;28;20601;-71
2023/10/28 04:18:42;;;;;;;;;;;;;;;;;;10342852;28;19921;-72
2023/10/28 04:23:44;;;;;;;;;;;;;;;;;;10349171;28;20259;-70
2023/10/28 04:28:47;;;;;;;;;;;;;;;;;;10340495;28;20271;-73
2023/10/28 04:33:49;;;;;;;;;;;;;;;;;;10342062;28;20100;-71
2023/10/28 04:38:52;;;;;;;;;;;;;;;;;;10341465;28;19921;-70
2023/10/28 04:43:54;;;;;;;;;;;;;;;;;;10344448;28;20651;-70
2023/10/28 04:48:56;;;;;;;;;;;;;;;;;;10342397;28;19930;-72
2023/10/28 04:53:59;;;;;;;;;;;;;;;;;;10345143;28;20008;-73
2023/10/28 04:59:01;;;;;;;;;;;;;;;;;;10342887;28;19928;-72
2023/10/28 05:04:04;;;;;;;;;;;;;;;;;;10348662;28;19933;-71
2023/10/28 05:09:06;;;;;;;;;;;;;;;;;;10348440;28;20385;-72
2023/10/28 05:14:11;;;;;;;;;;;;;;;;;;10345943;28;19928;-72
2023/10/28 05:19:14;;;;;;;;;;;;;;;;;;10345572;28;19933;-73
2023/10/28 05:24:16;;;;;;;;;;;;;;;;;;10348742;28;20383;-72
2023/10/28 05:29:18;;;;;;;;;;;;;;;;;;10351386;28;19929;-72
2023/10/28 05:34:23;;;;;;;;;;;;;;;;;;10343644;28;20302;-71
2023/10/28 05:39:25;;;;;;;;;;;;;;;;;;10343489;28;21442;-70
2023/10/28 05:44:28;;;;;;;;;;;;;;;;;;10352983;28;20378;-72
2023/10/28 05:49:30;;;;;;;;;;;;;;;;;;10350175;28;19928;-71
2023/10/28 05:54:33;;;;;;;;;;;;;;;;;;10353829;28;20007;-73
2023/10/28 05:59:36;;;;;;;;;;;;;;;;;;10342030;28;19943;-73
2023/10/28 06:04:38;;;;;;;;;;;;;;;;;;10353342;28;19948;-72
2023/10/28 06:09:40;;;;;;;;;;;;;;;;;;10353965;28;19928;-72
2023/10/28 06:14:43;;;;;;;;;;;;;;;;;;10350198;28;19929;-72
2023/10/28 06:19:45;;;;;;;;;;;;;;;;;;10351324;28;19929;-71
2023/10/28 06:24:49;;;;;;;;;;;;;;;;;;10348913;28;19932;-71
2023/10/28 06:29:52;;;;;;;;;;;;;;;;;;10341094;28;20367;-74
2023/10/28 06:34:54;;;;;;;;;;;;;;;;;;10348856;28;20397;-71
2023/10/28 06:39:58;;;;;;;;;;;;;;;;;;10353030;28;19983;-72
2023/10/28 06:45:00;;;;;;;;;;;;;;;;;;10346656;28;19976;-74
2023/10/28 06:50:04;;;;;;;;;;;;;;;;;;10352597;28;19921;-73
2023/10/28 06:55:12;;;;;;;;;;;;;;;;;;10346518;28;19928;-72
2023/10/28 07:00:15;;;;;;;;;;;;;;;;;;10347415;28;20338;-72
2023/10/28 07:05:18;;;;;;;;;;;;;;;;;;10346072;28;20310;-71
2023/10/28 07:10:20;;;;;;;;;;;;;;;;;;10347239;28;20275;-72
2023/10/28 07:15:22;;;;;;;;;;;;;;;;;;10342532;28;19927;-72
2023/10/28 07:20:25;;;;;;;;;;;;;;;;;;10341709;28;20024;-72
2023/10/28 07:25:27;;;;;;;;;;;;;;;;;;10339819;28;20372;-73
2023/10/28 07:30:30;;;;;;;;;;;;;;;;;;10342395;28;20011;-74
2023/10/28 07:35:32;;;;;;;;;;;;;;;;;;10342812;28;19933;-72
2023/10/28 07:40:35;;;;;;;;;;;;;;;;;;10342346;28;19936;-72
2023/10/28 07:45:38;;;;;;;;;;;;;;;;;;10339723;28;19929;-73
2023/10/28 07:50:40;;;;;;;;;;;;;;;;;;10339654;28;19921;-76
2023/10/28 07:55:43;;;;;;;;;;;;;;;;;;10340552;28;19921;-73
2023/10/28 08:00:46;;;;;;;;;;;;;;;;;;10346744;28;19945;-72
2023/10/28 08:05:48;;;;;;;;;;;;;;;;;;10342940;28;22154;-75
2023/10/28 08:10:51;;;;;;;;;;;;;;;;;;10342266;28;19929;-75
2023/10/28 08:15:54;;;;;;;;;;;;;;;;;;10342115;28;20071;-74
2023/10/28 08:20:57;;;;;;;;;;;;;;;;;;10343362;28;20314;-73
2023/10/28 08:25:59;;;;;;;;;;;;;;;;;;10342706;28;20401;-73
2023/10/28 08:31:02;;;;;;;;;;;;;;;;;;10343088;28;19953;-74
2023/10/28 08:36:04;;;;;;;;;;;;;;;;;;10352722;28;20528;-74
2023/10/28 08:41:08;;;;;;;;;;;;;;;;;;10348543;28;19921;-73
2023/10/28 08:46:10;;;;;;;;;;;;;;;;;;10346759;28;19921;-73
2023/10/28 08:51:13;;;;;;;;;;;;;;;;;;10360087;28;19930;-73
2023/10/28 08:56:17;;;;;;;;;;;;;;;;;;10349058;28;19956;-73
2023/10/28 09:01:22;;;;;;;1.17;1.00;;;;;;;;;;10351594;28;20436;-72
2023/10/28 09:06:25;;;;;;;2.17;1.50;;;;;;;;;;10341707;28;20049;-73
2023/10/28 09:11:28;;;;;;;1.50;1.40;;;;;;;;;;10349180;28;20046;-72
2023/10/28 09:16:33;;;;;;;2.47;1.42;;;;;;;;;;10349216;28;20038;-72
2023/10/28 09:21:36;;;;;;;2.38;1.40;;;;;;;;;;10343123;28;20609;-73
2023/10/28 09:26:39;;;;;;;3.38;1.60;;;;;;;;;;10345640;28;20124;-73
2023/10/28 09:31:44;;;;;;;2.75;1.83;;;;;;;;;;10342736;28;20057;-73
2023/10/28 09:36:46;;;;;;;2.17;1.60;;;;;;;;;;10348471;28;20073;-74
2023/10/28 09:41:53;;;;;;;1.85;1.48;;;;;;;;;;10339555;28;20052;-71
2023/10/28 09:47:00;;;;;;;2.45;1.50;;;;;;;;;;10347699;28;20062;-71
2023/10/28 09:52:06;;;;;;;1.63;1.50;;;;;;;;;;10342913;28;20049;-71
2023/10/28 09:57:10;;;;;;;2.38;1.75;;;;;;;;;;10346392;28;20053;-71
2023/10/28 10:02:29;;;;;;;1.77;1.67;;;;;;;;;;10352939;28;20030;-71
2023/10/28 10:07:32;;;;;;;1.80;1.70;;;;;;;;;;10377063;28;20057;-71
2023/10/28 10:12:35;;;;;;;2.97;1.85;;;;;;;;;;10365000;28;20046;-71
2023/10/28 10:17:46;;;;;;;2.92;1.73;;;;;;;;;;10365337;28;20041;-71
2023/10/28 10:22:54;;;;;;;2.53;1.80;;;;;;;;;;10362663;28;20033;-71
2023/10/28 10:28:05;;;;;;;2.30;2.03;;;;;;;;;;10364778;28;20166;-71
2023/10/28 10:33:08;;;;;;;;;;;;;;;;;;10359923;28;20057;-72
2023/10/28 10:38:13;;;;;;;1.90;1.80;;;;;;;;;;10362103;28;19925;-71
2023/10/28 10:43:19;;;;;;;2.10;1.90;;;;;;;;;;10362537;28;20040;-73
2023/10/28 10:48:22;;;;;;;1.67;1.50;;;;;;;;;;10365788;28;20045;-73
2023/10/28 10:53:26;;;;;;;2.42;1.60;;;;;;;;;;10361372;28;20085;-73
2023/10/28 10:58:28;;;;;;;1.95;1.20;;;;;;;;;;10362619;28;20057;-71
2023/10/28 11:03:31;;;;;;;1.60;1.50;;;;;;;;;;10347454;28;20137;-71
2023/10/28 11:08:36;;;;;;;1.80;1.70;;;;;;;;;;10347037;28;20030;-71
2023/10/28 11:13:39;;;;;;;2.20;1.70;;;;;;;;;;10352382;28;20050;-72
2023/10/28 11:18:43;;;;;;;2.22;1.73;;;;;;;;;;10346883;28;20811;-72
2023/10/28 11:23:47;;;;;;;2.60;1.15;;;;;;;;;;10333925;28;20034;-72
2023/10/28 11:28:49;;;;;;;1.17;1.00;;;;;;;;;;10345577;28;20037;-72
2023/10/28 11:33:52;;;;;;;1.70;1.60;;;;;;;;;;10349228;28;20052;-73
2023/10/28 11:38:56;;;;;;;1.75;1.65;;;;;;;;;;10341726;28;20597;-71
2023/10/28 11:43:59;;;;;;;1.98;1.60;;;;;;;;;;10347752;28;20105;-71
2023/10/28 11:49:03;;;;;;;3.47;1.70;;;;;;;;;;10338430;28;20140;-71
2023/10/28 11:54:07;;;;;;;2.40;1.60;;;;;;;;;;10337913;28;20043;-72
2023/10/28 11:59:09;;;;;;;1.70;1.25;;;;;;;;;;10340211;28;21084;-73
2023/10/28 12:04:12;;;;;;;1.50;1.40;;;;;;;;;;10337797;28;20656;-71
2023/10/28 12:09:16;;;;;;;2.97;1.48;;;;;;;;;;10342658;28;20049;-72
2023/10/28 12:14:18;;;;;;;4.93;1.55;;;;;;;;;;10340586;28;21897;-72
2023/10/28 12:19:21;;;;;;;3.60;1.58;;;;;;;;;;10355415;28;20049;-71
2023/10/28 12:24:25;;;;;;;2.28;1.40;;;;;;;;;;10339718;28;20112;-71
2023/10/28 12:29:27;;;;;;;1.27;1.00;;;;;;;;;;10340717;28;20065;-72
2023/10/28 12:34:30;;;;;;;3.90;1.60;;;;;;;;;;10342187;28;20120;-71
2023/10/28 12:39:34;;;;;;;1.90;1.45;;;;;;;;;;10335293;28;20531;-72
2023/10/28 12:44:37;;;;;;;3.60;1.55;;;;;;;;;;10344302;28;20049;-71
2023/10/28 12:49:39;;;;;;;3.25;1.83;;;;;;;;;;10343946;28;20041;-71
2023/10/28 12:54:43;;;;;;;1.27;1.17;;;;;;;;;;10341576;28;20041;-71
2023/10/28 12:59:47;;;;;;;2.22;1.30;;;;;;;;;;10336498;28;20054;-74
2023/10/28 13:04:50;;;;;;;3.85;1.60;;;;;;;;;;10340423;28;20038;-71
2023/10/28 13:09:54;;;;;;;2.58;1.70;;;;;;;;;;10342657;28;20464;-72
2023/10/28 13:14:57;;;;;;;3.38;1.58;;;;;;;;;;10337584;28;20150;-71
2023/10/28 13:19:59;;;;;;;3.08;1.50;;;;;;;;;;10341209;28;20116;-71
2023/10/28 13:25:03;;;;;;;4.60;1.60;;;;;;;;;;10356814;28;20068;-71
2023/10/28 13:30:07;;;;;;;1.30;1.20;;;;;;;;;;10358263;28;20098;-72
2023/10/28 13:35:11;;;;;;;2.67;1.20;;;;;;;;;;10358542;28;20060;-72
2023/10/28 13:40:15;;;;;;;2.47;1.70;;;;;;;;;;10362715;28;20050;-71
2023/10/28 13:45:18;;;;;;;3.85;1.48;;;;;;;;;;10366083;28;20137;-71
2023/10/28 13:50:20;;;;;;;2.22;1.20;;;;;;;;;;10368048;28;20061;-72
2023/10/28 13:55:23;;;;;;;;;;;;;;;;;;10367355;28;20041;-72
2023/10/28 14:00:27;;;;;;;5.07;1.30;;;;;;;;;;10367316;28;19929;-71
2023/10/28 14:05:30;;;;;;;3.28;1.08;;;;;;;;;;10363971;28;20042;-72
2023/10/28 14:10:32;;;;;;;1.00;0.90;;;;;;;;;;10359307;28;20045;-72
2023/10/28 14:15:42;;;;;;;2.60;0.93;;;;;;;;;;10364717;28;20113;-71
2023/10/28 14:20:44;;;;;;;4.72;1.10;;;;;;;;;;10361849;28;20054;-72
2023/10/28 14:25:47;;;;;;;7.33;2.50;;;;;;;;;;10365965;28;20040;-70
2023/10/28 14:30:52;;;;;;;3.30;1.05;;;;;;;;;;10367290;28;20328;-71
2023/10/28 14:35:54;;;;;;;2.50;0.90;;;;;;;;;;10355947;28;20041;-71
2023/10/28 14:40:57;;;;;;;2.30;0.80;;;;;;;;;;10356074;28;20046;-74
2023/10/28 14:46:03;;;;;;;3.45;1.13;;;;;;;;;;10363162;28;20549;-72
2023/10/28 14:51:08;;;;;;;2.05;1.00;;;;;;;;;;10361447;28;20042;-71
2023/10/28 14:56:11;;;;;;;2.75;1.00;;;;;;;;;;10352359;28;20095;-72
2023/10/28 15:01:17;;;;;;;2.67;1.00;;;;;;;;;;10371034;28;20141;-71
2023/10/28 15:06:19;;;;;;;1.50;0.75;;;;;;;;;;10357493;28;20034;-71
2023/10/28 15:11:22;;;;;;;1.77;0.98;;;;;;;;;;10359598;28;20120;-73
2023/10/28 15:16:26;;;;;;;3.83;1.43;;;;;;;;;;10357782;28;20048;-71
2023/10/28 15:21:29;;;;;;;3.28;1.00;;;;;;;;;;10367948;28;20144;-73
2023/10/28 15:26:33;;;;;;;1.17;0.80;;;;;;;;;;10363077;28;20116;-74
2023/10/28 15:31:37;;;;;;;2.38;0.90;;;;;;;;;;10362100;28;20543;-72
2023/10/28 15:36:40;;;;;;;2.85;1.23;;;;;;;;;;10344046;28;20042;-71
2023/10/28 15:41:43;;;;;;;2.27;1.10;;;;;;;;;;10345721;28;20546;-72
2023/10/28 15:46:47;;;;;;;4.07;1.07;;;;;;;;;;10338877;28;20542;-72
2023/10/28 15:51:50;;;;;;;4.72;1.23;;;;;;;;;;10342065;28;20305;-72
2023/10/28 15:56:53;;;;;;;8.68;2.97;;;;;;;;;;10340742;28;20026;-71
2023/10/28 16:01:57;;;;;;;2.43;1.17;;;;;;;;;;10338224;28;20042;-73
2023/10/28 16:07:03;;;;;;;4.15;1.50;;;;;;;;;;10338677;28;20061;-71
2023/10/28 16:12:06;;;;;;;4.18;1.70;;;;;;;;;;10335175;28;20130;-73
2023/10/28 16:17:10;;;;;;;9.60;2.13;;;;;;;;;;10343454;28;20483;-73
2023/10/28 16:22:13;;;;;;;7.22;3.00;;;;;;;;;;10332570;28;20057;-71
2023/10/28 16:27:16;;;;;;;5.53;2.53;;;;;;;;;;10337626;28;20534;-72
2023/10/28 16:32:20;;;;;;;4.37;1.73;;;;;;;;;;10341436;28;20550;-72
2023/10/28 16:37:23;;;;;;;7.90;2.13;;;;;;;;;;10340334;28;20319;-71
2023/10/28 16:42:25;;;;;;;6.85;1.60;;;;;;;;;;10339375;28;20061;-71
2023/10/28 16:47:29;;;;;;;5.32;2.00;;;;;;;;;;10339756;28;20069;-71
2023/10/28 16:52:33;;;;;;;5.65;2.40;;;;;;;;;;10339580;28;20065;-69
2023/10/28 16:57:39;;;;;;;5.40;2.03;;;;;;;;;;10347631;28;20527;-71
2023/10/28 17:02:43;;;;;;;7.32;2.60;;;;;;;;;;10342894;28;20050;-72
2023/10/28 17:07:46;;;;;;;3.17;1.08;;;;;;;;;;10342718;28;20045;-71
2023/10/28 17:12:48;;;;;;;4.75;1.85;;;;;;;;;;10352327;28;20052;-72
2023/10/28 17:17:52;;;;;;;8.25;1.73;;;;;;;;;;10343323;28;20046;-73
2023/10/28 17:22:55;;;;;;;6.72;2.22;;;;;;;;;;10349486;28;20056;-72
2023/10/28 17:27:58;;;;;;;2.88;2.10;;;;;;;;;;10348344;28;20165;-72
2023/10/28 17:33:05;;;;;;;4.87;1.90;;;;;;;;;;10348390;28;20049;-71
2023/10/28 17:38:07;;;;;;;3.53;1.52;;;;;;;;;;10351190;28;20305;-75
2023/10/28 17:43:10;;;;;;;2.60;1.33;;;;;;;;;;10350748;28;20052;-72
2023/10/28 17:48:20;;;;;;;4.20;1.88;;;;;;;;;;10344775;28;20176;-72
2023/10/28 17:53:23;;;;;;;5.43;1.50;;;;;;;;;;10345105;28;20052;-71
2023/10/28 17:58:25;;;;;;;4.78;1.65;;;;;;;;;;10346230;28;20404;-71
2023/10/28 18:03:31;;;;;;;2.97;1.42;;;;;;;;;;10340636;28;20044;-72
2023/10/28 18:08:34;;;;;;;5.90;2.25;;;;;;;;;;10342970;28;20086;-71
2023/10/28 18:13:37;;;;;;;7.15;1.92;;;;;;;;;;10348301;28;20132;-71
2023/10/28 18:18:41;;;;;;;5.20;2.22;;;;;;;;;;10346227;28;20128;-71
2023/10/28 18:23:46;;;;;;;8.15;2.65;;;;;;;;;;10347821;28;20513;-71
2023/10/28 18:28:48;;;;;;;5.45;2.63;;;;;;;;;;10339239;28;20116;-71
2023/10/28 18:33:54;;;;;;;7.65;3.08;;;;;;;;;;10343218;28;20048;-71
2023/10/28 18:38:56;;;;;;;7.88;3.78;;;;;;;;;;10342933;28;20046;-71
2023/10/28 18:43:59;;;;;;;5.85;2.72;;;;;;;;;;10348609;28;20042;-73
2023/10/28 18:49:05;;;;;;;5.47;2.50;;;;;;;;;;10343399;28;20050;-73
2023/10/28 18:54:08;;;;;;;11.43;4.82;;;;;;;;;;10340548;28;20185;-72
2023/10/28 18:59:11;;;;;;;4.20;2.08;;;;;;;;;;10342329;28;20039;-73
2023/10/28 19:04:15;;;;;;;5.75;1.80;;;;;;;;;;10341554;28;20046;-72
2023/10/28 19:09:18;;;;;;;9.05;3.03;;;;;;;;;;10347622;28;20505;-72
2023/10/28 19:14:21;;;;;;;8.27;2.63;;;;;;;;;;10350532;28;20054;-74
2023/10/28 19:19:26;;;;;;;6.07;2.45;;;;;;;;;;10347318;28;20049;-72
2023/10/28 19:24:30;;;;;;;3.80;1.58;;;;;;;;;;10353073;28;20132;-73
2023/10/28 19:29:33;;;;;;;8.55;2.47;;;;;;;;;;10354928;28;20452;-72
2023/10/28 19:34:37;;;;;;;3.50;1.67;;;;;;;;;;10362009;28;20132;-71
2023/10/28 19:39:40;;;;;;;6.57;1.80;;;;;;;;;;10356330;28;20111;-72
2023/10/28 19:44:44;;;;;;;2.75;1.50;;;;;;;;;;10353467;28;20037;-72
2023/10/28 19:49:48;;;;;;;3.65;1.58;;;;;;;;;;10359812;28;20049;-75
2023/10/28 19:54:52;;;;;;;1.60;1.05;;;;;;;;;;10360063;28;20038;-70
2023/10/28 19:59:55;;;;;;;2.65;1.38;;;;;;;;;;10358454;28;20092;-72
2023/10/28 20:04:59;;;;;;;2.10;1.23;;;;;;;;;;10361581;28;20050;-71
2023/10/28 20:10:05;;;;;;;2.25;1.30;;;;;;;;;;10354057;28;20549;-71
2023/10/28 20:15:10;;;;;;;1.83;0.85;;;;;;;;;;10352797;28;20515;-70
2023/10/28 20:20:14;;;;;;;3.70;1.42;;;;;;;;;;10360429;28;20048;-72
2023/10/28 20:25:17;;;;;;;3.13;1.15;;;;;;;;;;10354984;28;20386;-70
2023/10/28 20:30:20;;;;;;;3.15;1.23;;;;;;;;;;10360169;28;20050;-71
2023/10/28 20:35:24;;;;;;;1.52;0.90;;;;;;;;;;10353238;28;20113;-72
2023/10/28 20:40:27;;;;;;;;;;;;;;;;;;10357228;28;20052;-71
2023/10/28 20:45:29;;;;;;;2.95;1.35;;;;;;;;;;10357305;28;19925;-70
2023/10/28 20:50:33;;;;;;;3.40;1.25;;;;;;;;;;10353816;28;20116;-70
2023/10/28 20:55:36;;;;;;;;;;;;;;;;;;10357648;28;20041;-71
2023/10/28 21:00:39;;;;;;;2.38;1.02;;;;;;;;;;10360675;28;20036;-73
2023/10/28 21:05:43;;;;;;;4.45;1.13;;;;;;;;;;10351589;28;20459;-71
2023/10/28 21:10:46;;;;;;;;;;;;;;;;;;10359776;28;20132;-71
2023/10/28 21:15:48;;;;;;;2.10;1.02;;;;;;;;;;10355683;28;19979;-71
2023/10/28 21:20:52;;;;;;;1.65;0.80;;;;;;;;;;10360026;28;20065;-70
2023/10/28 21:25:56;;;;;;;1.02;0.77;;;;;;;;;;10347745;28;20192;-71
2023/10/28 21:31:01;;;;;;;3.33;1.08;;;;;;;;;;10357513;28;20120;-72
2023/10/28 21:36:06;;;;;;;2.88;0.90;;;;;;;;;;10363252;28;20074;-76
2023/10/28 21:41:08;;;;;;;1.55;1.00;;;;;;;;;;10358073;28;20072;-70
2023/10/28 21:46:11;;;;;;;1.92;1.05;;;;;;;;;;10343918;28;20041;-71
2023/10/28 21:51:17;;;;;;;1.52;1.20;;;;;;;;;;10345361;28;20045;-71
2023/10/28 21:56:20;;;;;;;1.65;0.82;;;;;;;;;;10336655;28;20134;-70
2023/10/28 22:01:26;;;;;;;1.45;0.70;;;;;;;;;;10353250;28;20367;-72
2023/10/28 22:06:31;;;;;;;0.95;0.65;;;;;;;;;;10344458;28;20041;-71
2023/10/28 22:11:33;;;;;;;2.15;0.68;;;;;;;;;;10347983;28;20046;-71
2023/10/28 22:16:36;;;;;;;0.90;0.88;;;;;;;;;;10347864;28;20038;-71
2023/10/28 22:21:41;;;;;;;1.63;0.90;;;;;;;;;;10344931;28;20104;-71
2023/10/28 22:26:43;;;;;;;0.55;0.50;;;;;;;;;;10351035;28;20061;-71
2023/10/28 22:31:46;;;;;;;1.40;0.70;;;;;;;;;;10346454;28;20072;-70
2023/10/28 22:36:50;;;;;;;1.52;0.82;;;;;;;;;;10362375;28;20058;-71
2023/10/28 22:41:52;;;;;;;1.80;1.05;;;;;;;;;;10351429;28;20136;-71
2023/10/28 22:46:55;;;;;;;3.15;1.23;;;;;;;;;;10345349;28;20065;-71
2023/10/28 22:51:59;;;;;;;1.50;0.55;;;;;;;;;;10354957;28;20046;-70
2023/10/28 22:57:02;;;;;;;4.03;1.10;;;;;;;;;;10348651;28;20050;-70
2023/10/28 23:02:04;;;;;;;3.83;0.85;;;;;;;;;;10349226;28;20488;-69
2023/10/28 23:07:08;;;;;;;2.45;1.20;;;;;;;;;;10350724;28;20543;-71
2023/10/28 23:12:11;;;;;;;3.53;1.48;;;;;;;;;;10342879;28;20522;-71
2023/10/28 23:17:13;;;;;;;5.97;1.27;;;;;;;;;;10343075;28;20561;-71
2023/10/28 23:22:17;;;;;;;4.40;1.10;;;;;;;;;;10346670;28;20042;-71
2023/10/28 23:27:20;;;;;;;2.67;1.15;;;;;;;;;;10347087;28;20127;-71
2023/10/28 23:32:22;;;;;;;1.67;1.00;;;;;;;;;;10347989;28;20189;-71
2023/10/28 23:37:32;;;;;;;2.13;0.57;;;;;;;;;;10353131;28;20038;-72
2023/10/28 23:42:35;;;;;;;1.00;0.70;;;;;;;;;;10348218;28;20045;-71
2023/10/28 23:47:38;;;;;;;0.85;0.73;;;;;;;;;;10342699;28;20038;-71
2023/10/28 23:52:41;;;;;;;0.80;0.50;;;;;;;;;;10341521;28;21182;-70
2023/10/28 23:57:44;;;;;;;3.22;0.70;;;;;;;;;;10342208;28;20038;-73
